Time;durP1;ratioP1;P1;durP2;ratioP2;P2;SDS_P1;SDS_P2;PMS_P1;PMS_P2;Temp;Humidity;BMP_temperature;BMP_pressure;BME280_temperature;BME280_humidity;BME280_pressure;Samples;Min_cycle;Max_cycle;Signal;HPM_P1;HPM_P2
2023/04/06 00:00:12;;;;;;;19.17;6.63;;;;;;;7.68;90.83;99681.19;10330976;28;20053;-77
2023/04/06 00:05:13;;;;;;;19.63;6.80;;;;;;;7.94;91.01;99731.28;10331167;28;20097;-77
2023/04/06 00:10:14;;;;;;;15.05;6.22;;;;;;;8.48;91.97;99827.84;10331019;28;20049;-76
2023/04/06 00:15:15;;;;;;;17.67;6.38;;;;;;;8.57;92.07;99837.44;10341029;28;20502;-77
2023/04/06 00:20:16;;;;;;;15.85;6.47;;;;;;;8.06;91.61;99744.16;10331427;28;20137;-77
2023/04/06 00:25:17;;;;;;;14.48;6.18;;;;;;;8.63;92.04;99812.94;10333558;28;20436;-77
2023/04/06 00:30:18;;;;;;;14.57;6.45;;;;;;;8.60;92.25;99823.88;10337782;28;20129;-77
2023/04/06 00:35:19;;;;;;;12.98;6.70;;;;;;;7.67;92.23;99673.44;10337831;28;20065;-78
2023/04/06 00:40:20;;;;;;;17.70;6.28;;;;;;;8.35;92.33;99764.81;10338572;28;20045;-77
2023/04/06 00:45:21;;;;;;;17.33;6.20;;;;;;;8.52;92.53;99795.56;10313417;28;20047;-77
2023/04/06 00:50:22;;;;;;;15.20;6.38;;;;;;;8.77;92.57;99824.69;10296830;28;20038;-77
2023/04/06 00:55:22;;;;;;;21.05;6.28;;;;;;;8.19;92.12;99713.53;10297042;28;20499;-77
2023/04/06 01:00:23;;;;;;;12.35;6.50;;;;;;;8.86;91.84;99813.06;10297498;28;20061;-76
2023/04/06 01:05:24;;;;;;;16.35;6.13;;;;;;;8.96;91.88;99836.69;10296672;28;20277;-76
2023/04/06 01:10:27;;;;;;;14.25;6.25;;;;;;;8.93;92.03;99832.56;10311698;28;20070;-77
2023/04/06 01:15:29;;;;;;;14.77;6.60;;;;;;;8.94;91.89;99841.34;10295927;28;20046;-76
2023/04/06 01:20:30;;;;;;;15.45;7.15;;;;;;;8.83;91.89;99818.69;10296387;28;20062;-77
2023/04/06 01:25:31;;;;;;;27.45;13.57;;;;;;;8.84;92.01;99801.81;10311117;28;20046;-77
2023/04/06 01:30:32;;;;;;;18.83;7.78;;;;;;;8.99;92.46;99829.22;10295675;28;20046;-77
2023/04/06 01:35:32;;;;;;;17.27;7.65;;;;;;;8.93;91.82;99813.19;10294332;28;20125;-76
2023/04/06 01:40:33;;;;;;;26.35;10.65;;;;;;;8.40;91.90;99736.84;10295767;28;20050;-76
2023/04/06 01:45:34;;;;;;;20.80;9.63;;;;;;;9.03;92.23;99841.13;10295656;28;20384;-76
2023/04/06 01:50:36;;;;;;;14.60;8.85;;;;;;;9.01;92.46;99851.09;10294525;28;20522;-73
2023/04/06 01:55:36;;;;;;;23.10;9.70;;;;;;;8.96;93.46;99847.28;10294948;28;20446;-74
2023/04/06 02:00:37;;;;;;;19.63;8.68;;;;;;;8.98;93.90;99843.50;10294931;28;20045;-74
2023/04/06 02:05:38;;;;;;;17.50;8.60;;;;;;;8.96;94.07;99842.00;10294100;28;20430;-73
2023/04/06 02:10:39;;;;;;;20.23;8.82;;;;;;;9.04;94.57;99866.66;10347509;28;20038;-74
2023/04/06 02:15:40;;;;;;;20.95;8.35;;;;;;;9.03;95.30;99859.69;10375012;28;20103;-74
2023/04/06 02:20:41;;;;;;;14.60;8.32;;;;;;;8.81;95.36;99842.69;10338888;28;20624;-74
2023/04/06 02:25:42;;;;;;;20.02;9.75;;;;;;;8.58;95.76;99821.38;10334225;28;20409;-74
2023/04/06 02:30:43;;;;;;;30.35;14.25;;;;;;;8.51;96.42;99801.88;10364686;28;20056;-74
2023/04/06 02:35:45;;;;;;;23.02;10.02;;;;;;;8.96;97.47;99871.97;10374287;28;20042;-74
2023/04/06 02:40:46;;;;;;;21.23;9.88;;;;;;;8.86;97.48;99858.91;10366215;28;20046;-73
2023/04/06 02:45:47;;;;;;;15.02;8.48;;;;;;;8.66;97.39;99855.78;10347938;28;20498;-74
2023/04/06 02:50:47;;;;;;;21.67;9.52;;;;;;;8.77;97.95;99896.19;10362272;28;20037;-73
2023/04/06 02:55:48;;;;;;;19.88;8.75;;;;;;;8.71;98.17;99886.25;10331906;28;20112;-73
2023/04/06 03:00:49;;;;;;;21.50;8.88;;;;;;;8.53;98.47;99860.78;10345817;28;20414;-74
2023/04/06 03:05:50;;;;;;;19.42;9.48;;;;;;;8.66;99.04;99892.03;10331056;28;20148;-74
2023/04/06 03:10:51;;;;;;;19.77;9.68;;;;;;;8.56;98.84;99872.84;10332125;28;20132;-74
2023/04/06 03:15:52;;;;;;;26.88;10.38;;;;;;;8.40;99.63;99863.09;10317142;28;20062;-74
2023/04/06 03:20:55;;;;;;;19.75;9.88;;;;;;;8.28;99.19;99827.31;10350899;28;20066;-73
2023/04/06 03:26:01;;;;;;;32.33;17.40;;;;;;;8.88;100.00;99919.66;10341160;28;20441;-77
2023/04/06 03:31:01;;;;;;;24.75;11.02;;;;;;;8.60;99.99;99885.59;10331221;28;20065;-74
2023/04/06 03:36:02;;;;;;;22.75;11.55;;;;;;;8.27;100.00;99823.84;10331324;28;20031;-74
2023/04/06 03:41:03;;;;;;;28.83;11.50;;;;;;;8.76;100.00;99905.91;10330995;28;20053;-74
2023/04/06 03:46:04;;;;;;;22.13;10.50;;;;;;;8.81;100.00;99932.75;10330930;28;20062;-74
2023/04/06 03:51:05;;;;;;;23.58;11.52;;;;;;;8.27;100.00;99849.50;10337454;28;20042;-75
2023/04/06 03:56:06;;;;;;;19.55;10.93;;;;;;;8.10;100.00;99833.59;10355886;28;20058;-74
2023/04/06 04:01:07;;;;;;;22.73;10.77;;;;;;;8.26;100.00;99879.59;10344620;28;20034;-75
2023/04/06 04:06:08;;;;;;;23.25;11.95;;;;;;;8.50;100.00;99937.88;10338761;28;20576;-76
2023/04/06 04:11:09;;;;;;;21.50;11.45;;;;;;;8.31;100.00;99909.03;10339067;28;20046;-74
2023/04/06 04:16:10;;;;;;;27.13;11.55;;;;;;;8.45;100.00;99940.19;10337771;28;20049;-79
2023/04/06 04:21:10;;;;;;;27.33;11.93;;;;;;;7.50;100.00;99795.00;10332778;28;20059;-76
2023/04/06 04:26:11;;;;;;;22.27;11.52;;;;;;;8.44;100.00;99946.47;10338091;28;20038;-77
2023/04/06 04:31:12;;;;;;;24.92;12.32;;;;;;;8.45;100.00;99943.66;10337854;28;20042;-73
2023/04/06 04:36:13;;;;;;;20.77;12.18;;;;;;;8.20;100.00;99913.66;10341032;28;20533;-74
2023/04/06 04:41:14;;;;;;;23.50;12.85;;;;;;;8.45;100.00;99954.25;10353973;28;20078;-74
2023/04/06 04:46:15;;;;;;;29.60;13.13;;;;;;;8.18;100.00;99906.88;10356681;28;20038;-79
2023/04/06 04:51:15;;;;;;;23.40;12.68;;;;;;;8.47;100.00;99953.28;10353931;28;20045;-77
2023/04/06 04:56:16;;;;;;;21.23;12.07;;;;;;;8.50;100.00;99974.13;10363891;28;20153;-76
2023/04/06 05:01:17;;;;;;;25.55;11.60;;;;;;;8.47;100.00;99955.91;10337247;28;20076;-76
2023/04/06 05:06:19;;;;;;;19.92;10.80;;;;;;;8.50;100.00;99953.75;10336371;28;20049;-76
2023/04/06 05:11:21;;;;;;;16.35;9.55;;;;;;;8.52;100.00;99962.34;10335920;28;20057;-77
2023/04/06 05:16:21;;;;;;;18.95;9.73;;;;;;;8.31;100.00;99924.91;10336413;28;20045;-77
2023/04/06 05:21:22;;;;;;;22.20;9.90;;;;;;;8.55;100.00;99964.66;10336738;28;20052;-76
2023/04/06 05:26:23;;;;;;;16.83;9.80;;;;;;;8.47;100.00;99962.03;10315679;28;20066;-76
2023/04/06 05:31:24;;;;;;;21.13;9.95;;;;;;;8.13;100.00;99912.63;10295320;28;20378;-77
2023/04/06 05:36:26;;;;;;;18.30;8.32;;;;;;;8.51;100.00;99981.06;10295375;28;20066;-77
2023/04/06 05:41:27;;;;;;;19.20;8.35;;;;;;;8.49;100.00;99983.84;10295439;28;20126;-77
2023/04/06 05:46:27;;;;;;;14.10;5.78;;;;;;;8.54;100.00;99992.16;10294837;28;20133;-77
2023/04/06 05:51:28;;;;;;;16.80;6.05;;;;;;;8.52;100.00;99991.47;10294731;28;20458;-78
2023/04/06 05:56:30;;;;;;;17.55;5.45;;;;;;;8.12;100.00;99918.94;10295010;28;20530;-78
2023/04/06 06:01:30;;;;;;;16.90;5.22;;;;;;;8.55;100.00;100000.91;10295054;28;20426;-78
2023/04/06 06:06:31;;;;;;;12.85;5.25;;;;;;;8.49;100.00;99997.09;10295222;28;20058;-78
2023/04/06 06:11:32;;;;;;;14.23;5.53;;;;;;;8.40;100.00;99976.91;10293906;28;20508;-78
2023/04/06 06:16:33;;;;;;;18.10;5.38;;;;;;;8.62;100.00;100013.34;10294343;28;20133;-78
2023/04/06 06:21:34;;;;;;;15.77;5.30;;;;;;;8.47;100.00;99988.50;10294336;28;20554;-79
2023/04/06 06:26:36;;;;;;;11.38;4.55;;;;;;;8.59;100.00;100018.97;10294600;28;20109;-78
2023/04/06 06:31:37;;;;;;;9.88;4.32;;;;;;;8.52;100.00;100004.72;10293644;28;20053;-78
2023/04/06 06:36:38;;;;;;;15.25;4.57;;;;;;;8.48;100.00;100018.44;10293584;28;20133;-78
2023/04/06 06:41:40;;;;;;;16.80;4.60;;;;;;;8.45;100.00;99986.00;10292838;28;20059;-78
2023/04/06 06:46:40;;;;;;;11.48;4.50;;;;;;;8.69;100.00;100021.47;10292306;28;20222;-78
2023/04/06 06:51:41;;;;;;;13.68;4.35;;;;;;;8.59;100.00;99986.38;10292371;28;20181;-79
2023/04/06 06:56:42;;;;;;;11.75;4.50;;;;;;;8.91;100.00;100034.06;10292553;28;20105;-78
2023/04/06 07:01:43;;;;;;;8.63;3.88;;;;;;;8.93;100.00;100025.94;10292679;28;20511;-78
2023/04/06 07:06:43;;;;;;;10.57;3.55;;;;;;;8.64;100.00;99989.34;10292413;28;20047;-78
2023/04/06 07:11:46;;;;;;;8.40;3.78;;;;;;;8.23;100.00;99931.84;10292400;28;20154;-80
2023/04/06 07:16:48;;;;;;;12.13;3.95;;;;;;;8.81;100.00;100017.50;10292218;28;20129;-80
2023/04/06 07:21:49;;;;;;;12.13;3.92;;;;;;;8.73;100.00;100006.06;10292170;28;20138;-79
2023/04/06 07:26:50;;;;;;;7.70;4.00;;;;;;;8.43;100.00;99939.50;10291898;28;20042;-78
2023/04/06 07:31:51;;;;;;;9.70;4.82;;;;;;;8.90;100.00;100015.69;10292113;28;20058;-78
2023/04/06 07:36:53;;;;;;;12.52;4.68;;;;;;;8.96;100.00;100015.03;10290914;28;20031;-80
2023/04/06 07:41:54;;;;;;;11.10;4.45;;;;;;;8.79;100.00;99994.81;10290985;28;20133;-79
2023/04/06 07:46:55;;;;;;;9.32;4.78;;;;;;;8.87;100.00;100014.19;10291723;28;20126;-78
2023/04/06 07:51:56;;;;;;;10.98;4.80;;;;;;;8.76;100.00;99982.72;10291845;28;20049;-81
2023/04/06 07:56:57;;;;;;;11.13;4.80;;;;;;;8.57;100.00;99935.41;10291019;28;20090;-79
2023/04/06 08:01:57;;;;;;;12.88;5.22;;;;;;;8.51;100.00;99921.00;10290693;28;20503;-78
2023/04/06 08:06:58;;;;;;;8.52;4.70;;;;;;;9.21;100.00;100023.78;10290676;28;20078;-79
2023/04/06 08:11:59;;;;;;;13.93;3.90;;;;;;;9.14;100.00;100015.66;10291345;28;20038;-78
2023/04/06 08:17:00;;;;;;;14.82;4.63;;;;;;;9.30;100.00;100032.56;10291058;28;20043;-79
2023/04/06 08:22:00;;;;;;;14.98;4.80;;;;;;;9.25;100.00;100027.78;10290278;28;20414;-79
2023/04/06 08:27:01;;;;;;;11.75;4.40;;;;;;;8.93;100.00;99959.72;10290849;28;20097;-79
2023/04/06 08:32:04;;;;;;;9.43;4.45;;;;;;;9.50;100.00;100035.69;10290005;28;20046;-79
2023/04/06 08:37:06;;;;;;;12.88;4.68;;;;;;;9.75;100.00;100032.00;10291633;28;20041;-78
2023/04/06 08:42:14;;;;;;;13.93;4.50;;;;;;;9.87;100.00;100024.50;10290516;28;20043;-78
2023/04/06 08:47:15;;;;;;;12.60;4.57;;;;;;;10.06;100.00;100029.38;10293840;28;20043;-79
2023/04/06 08:52:18;;;;;;;9.05;3.70;;;;;;;10.31;100.00;100034.59;10298130;28;20046;-78
2023/04/06 08:57:20;;;;;;;12.10;4.30;;;;;;;10.44;100.00;100020.75;10297507;28;20419;-80
2023/04/06 09:02:21;;;;;;;10.77;3.63;;;;;;;10.63;100.00;100019.50;10298107;28;20089;-79
2023/04/06 09:07:23;;;;;;;12.13;4.35;;;;;;;10.56;100.00;99976.03;10296967;28;20049;-79
2023/04/06 09:12:28;;;;;;;8.43;3.85;;;;;;;10.39;100.00;99930.19;10296655;28;20483;-79
2023/04/06 09:17:33;;;;;;;13.35;3.63;;;;;;;11.05;100.00;100007.56;10296104;28;20077;-78
2023/04/06 09:22:37;;;;;;;10.25;4.25;;;;;;;10.77;100.00;99957.63;10296457;28;20477;-78
2023/04/06 09:27:38;;;;;;;13.50;4.32;;;;;;;11.16;100.00;100010.59;10296897;28;20103;-77
2023/04/06 09:32:53;;;;;;;11.93;3.95;;;;;;;11.45;100.00;100029.44;10295897;28;20070;-77
2023/04/06 09:37:55;;;;;;;11.18;4.72;;;;;;;11.43;100.00;100016.34;10295276;28;20053;-78
2023/04/06 09:42:57;;;;;;;9.20;4.10;;;;;;;11.43;100.00;100019.81;10295183;28;20117;-76
2023/04/06 09:47:59;;;;;;;21.10;4.53;;;;;;;11.45;100.00;100024.13;10295042;28;20043;-76
2023/04/06 09:53:01;;;;;;;11.85;4.18;;;;;;;11.48;100.00;100024.59;10295653;28;20074;-77
2023/04/06 09:58:06;;;;;;;10.10;3.95;;;;;;;11.49;100.00;100006.81;10294673;28;20063;-76
2023/04/06 10:03:09;;;;;;;39.85;31.48;;;;;;;11.66;100.00;100011.75;10294930;28;20097;-77
2023/04/06 10:08:10;;;;;;;16.37;5.33;;;;;;;11.73;100.00;100009.22;10294745;28;20109;-76
2023/04/06 10:13:11;;;;;;;11.80;4.15;;;;;;;11.76;100.00;99982.22;10293878;28;20100;-76
2023/04/06 10:18:13;;;;;;;16.80;3.85;;;;;;;12.11;100.00;100001.13;10294693;28;20042;-76
2023/04/06 10:23:34;;;;;;;17.25;3.70;;;;;;;11.88;99.10;99930.22;10294529;28;20411;-75
2023/04/06 10:28:36;;;;;;;19.83;3.58;;;;;;;12.01;97.84;99942.03;10294096;28;20076;-76
2023/04/06 10:33:36;;;;;;;10.88;3.00;;;;;;;12.62;96.31;100008.22;10293776;28;20101;-77
2023/04/06 10:38:39;;;;;;;14.50;3.10;;;;;;;12.62;95.46;100001.06;10293517;28;20042;-75
2023/04/06 10:43:41;;;;;;;15.20;3.47;;;;;;;12.24;93.97;99918.72;10293523;28;20035;-75
2023/04/06 10:48:46;;;;;;;24.48;4.00;;;;;;;12.50;92.96;99917.31;10292941;28;20415;-75
2023/04/06 10:53:48;;;;;;;18.50;3.15;;;;;;;13.12;91.21;99999.25;10292384;28;20042;-75
2023/04/06 10:58:55;;;;;;;10.63;2.92;;;;;;;12.95;88.53;99952.56;10293043;28;20058;-75
2023/04/06 11:04:00;;;;;;;19.75;3.50;;;;;;;13.16;88.31;99986.38;10307730;28;20046;-75
2023/04/06 11:09:00;;;;;;;20.08;3.80;;;;;;;12.88;87.22;99978.34;10291725;28;20490;-75
2023/04/06 11:14:02;;;;;;;15.65;2.97;;;;;;;12.60;86.68;99965.00;10292462;28;20042;-75
2023/04/06 11:19:09;;;;;;;16.27;3.47;;;;;;;12.34;87.46;99972.50;10291591;28;20053;-75
2023/04/06 11:24:11;;;;;;;14.48;3.30;;;;;;;12.02;86.33;99967.63;10292067;28;20050;-74
2023/04/06 11:29:13;;;;;;;17.73;3.17;;;;;;;11.80;86.88;99924.13;10291265;28;20046;-75
2023/04/06 11:34:19;;;;;;;16.67;3.33;;;;;;;11.96;87.26;99952.41;10291330;28;20043;-75
2023/04/06 11:39:23;;;;;;;16.45;3.20;;;;;;;12.24;87.30;99977.31;10291445;28;20550;-75
2023/04/06 11:44:29;;;;;;;;;;;;;;;12.47;86.49;99965.66;10293107;28;20074;-75
2023/04/06 11:49:32;;;;;;;17.65;4.47;;;;;;;12.38;87.30;99951.63;10290899;28;19918;-75
2023/04/06 11:54:37;;;;;;;18.77;4.85;;;;;;;11.97;88.42;99863.56;10290847;28;20047;-76
2023/04/06 11:59:38;;;;;;;52.13;26.98;;;;;;;12.46;87.28;99922.22;10291917;28;20073;-76
2023/04/06 12:04:39;;;;;;;31.40;20.20;;;;;;;12.59;87.36;99910.84;10290732;28;20066;-76
2023/04/06 12:09:40;;;;;;;30.15;15.82;;;;;;;12.72;86.15;99872.84;10290997;28;20043;-75
2023/04/06 12:14:40;;;;;;;30.42;17.45;;;;;;;13.37;85.22;99929.50;10290424;28;20049;-76
2023/04/06 12:19:41;;;;;;;19.15;7.43;;;;;;;13.47;84.31;99919.31;10290514;28;20039;-75
2023/04/06 12:24:42;;;;;;;30.30;11.70;;;;;;;13.69;83.62;99928.03;10298683;28;20034;-75
2023/04/06 12:29:43;;;;;;;30.98;9.88;;;;;;;13.53;83.75;99910.50;10318555;28;20042;-74
2023/04/06 12:34:44;;;;;;;27.98;8.63;;;;;;;13.09;83.81;99860.97;10341438;28;20516;-74
2023/04/06 12:39:45;;;;;;;23.77;8.05;;;;;;;13.37;83.80;99934.84;10355931;28;20042;-75
2023/04/06 12:44:46;;;;;;;30.42;12.07;;;;;;;13.01;83.38;99917.97;10344400;28;20038;-76
2023/04/06 12:49:47;;;;;;;24.73;5.75;;;;;;;13.15;82.86;99953.53;10325335;28;20038;-76
2023/04/06 12:54:48;;;;;;;20.90;5.82;;;;;;;12.90;82.58;99893.69;10341221;28;20047;-76
2023/04/06 12:59:50;;;;;;;26.77;5.45;;;;;;;13.09;82.48;99940.16;10325638;28;20051;-75
2023/04/06 13:04:50;;;;;;;36.97;14.30;;;;;;;13.16;82.55;99957.03;10311263;28;20124;-75
2023/04/06 13:09:52;;;;;;;28.83;8.50;;;;;;;13.02;82.45;99948.13;10311694;28;20048;-76
2023/04/06 13:14:52;;;;;;;26.83;4.35;;;;;;;12.70;81.59;99913.00;10318553;28;20481;-74
2023/04/06 13:19:53;;;;;;;21.92;5.28;;;;;;;12.65;81.99;99895.94;10351942;28;20137;-74
2023/04/06 13:24:54;;;;;;;16.10;4.32;;;;;;;12.64;82.79;99902.28;10358776;28;20052;-75
2023/04/06 13:29:56;;;;;;;22.17;4.22;;;;;;;12.78;82.79;99934.19;10356110;28;20070;-74
2023/04/06 13:34:58;;;;;;;15.55;3.35;;;;;;;12.89;83.66;99980.84;10335645;28;20057;-76
2023/04/06 13:39:59;;;;;;;23.60;3.65;;;;;;;12.73;83.76;99968.59;10341280;28;20125;-76
2023/04/06 13:44:59;;;;;;;17.15;3.55;;;;;;;12.74;84.05;99980.91;10376091;28;20580;-76
2023/04/06 13:50:00;;;;;;;14.73;3.00;;;;;;;12.39;84.36;99920.50;10375455;28;20049;-76
2023/04/06 13:55:02;;;;;;;19.27;3.22;;;;;;;12.70;84.27;99984.94;10376435;28;20069;-76
2023/04/06 14:00:03;;;;;;;16.58;3.42;;;;;;;12.32;84.31;99928.41;10347667;28;20053;-75
2023/04/06 14:05:05;;;;;;;17.80;3.28;;;;;;;12.65;84.73;99958.03;10333826;28;20039;-77
2023/04/06 14:10:13;;;;;;;15.95;3.60;;;;;;;12.57;84.85;99944.88;10322009;28;20061;-76
2023/04/06 14:15:14;;;;;;;14.93;2.80;;;;;;;12.74;85.16;99977.41;10363303;28;20084;-75
2023/04/06 14:20:15;;;;;;;22.98;3.30;;;;;;;12.41;85.02;99913.13;10367972;28;20069;-75
2023/04/06 14:25:16;;;;;;;16.63;2.55;;;;;;;12.85;85.27;99984.06;10350246;28;20046;-75
2023/04/06 14:30:17;;;;;;;12.98;2.88;;;;;;;12.67;85.61;99948.03;10346577;28;20049;-75
2023/04/06 14:35:17;;;;;;;8.23;2.70;;;;;;;12.95;85.39;99982.75;10340576;28;20050;-76
2023/04/06 14:40:18;;;;;;;13.85;2.70;;;;;;;12.89;85.33;99982.66;10347658;28;20041;-77
2023/04/06 14:45:21;;;;;;;18.55;3.08;;;;;;;11.70;85.19;99807.34;10348884;28;20076;-76
2023/04/06 14:50:22;;;;;;;14.25;3.10;;;;;;;12.64;85.31;99984.91;10345629;28;20084;-76
2023/04/06 14:55:22;;;;;;;13.75;3.38;;;;;;;12.63;85.98;99970.75;10354775;28;20501;-76
2023/04/06 15:00:23;;;;;;;19.38;3.72;;;;;;;11.58;86.01;99817.66;10373338;28;20073;-76
2023/04/06 15:05:25;;;;;;;18.55;4.03;;;;;;;12.54;86.60;99971.91;10353811;28;20053;-76
2023/04/06 15:10:26;;;;;;;15.18;3.20;;;;;;;12.26;87.42;99939.81;10360300;28;20521;-76
2023/04/06 15:15:28;;;;;;;17.17;3.88;;;;;;;11.83;87.83;99875.84;10345032;28;20140;-76
2023/04/06 15:20:29;;;;;;;20.88;3.90;;;;;;;12.26;88.12;99956.63;10372511;28;20033;-76
2023/04/06 15:25:30;;;;;;;17.83;4.10;;;;;;;12.28;88.54;99969.78;10354719;28;20042;-76
2023/04/06 15:30:31;;;;;;;18.70;3.83;;;;;;;12.25;89.45;99978.13;10332510;28;20060;-76
2023/04/06 15:35:33;;;;;;;13.60;3.10;;;;;;;12.06;90.61;99964.41;10332016;28;20052;-75
2023/04/06 15:40:42;;;;;;;16.70;3.30;;;;;;;11.98;90.75;99967.19;10347479;28;20046;-75
2023/04/06 15:45:43;;;;;;;19.52;3.90;;;;;;;11.80;91.79;99956.06;10328450;28;20050;-75
2023/04/06 15:50:44;;;;;;;16.02;3.13;;;;;;;11.93;92.52;100001.50;10371789;28;20120;-77
2023/04/06 15:55:44;;;;;;;10.77;3.70;;;;;;;11.12;92.72;99880.88;10371768;28;20088;-74
2023/04/06 16:00:45;;;;;;;19.88;4.63;;;;;;;11.71;93.88;99986.44;10379537;28;20045;-73
2023/04/06 16:05:46;;;;;;;16.40;3.90;;;;;;;11.78;93.98;100013.97;10380076;28;20401;-77
2023/04/06 16:10:47;;;;;;;16.27;4.38;;;;;;;11.61;94.31;99997.38;10378498;28;20046;-77
2023/04/06 16:15:51;;;;;;;44.00;4.43;;;;;;;11.65;95.65;100011.94;10337392;28;20046;-77
2023/04/06 16:20:52;;;;;;;16.65;3.80;;;;;;;11.09;94.57;99929.09;10299043;28;20446;-75
2023/04/06 16:25:56;;;;;;;14.55;3.33;;;;;;;11.38;94.91;99997.44;10298013;28;20066;-73
2023/04/06 16:30:57;;;;;;;18.55;3.63;;;;;;;11.15;95.21;99970.91;10339111;28;20493;-76
2023/04/06 16:35:58;;;;;;;15.45;3.85;;;;;;;11.39;95.62;100015.84;10348915;28;20076;-76
2023/04/06 16:41:03;;;;;;;16.73;4.25;;;;;;;11.39;95.73;100029.16;10322371;28;20034;-75
2023/04/06 16:46:04;;;;;;;23.70;4.78;;;;;;;11.33;96.03;100029.88;10327922;28;20070;-75
2023/04/06 16:51:14;;;;;;;29.48;5.05;;;;;;;11.05;98.34;99979.13;10312692;28;20046;-76
2023/04/06 16:56:15;;;;;;;21.67;4.65;;;;;;;11.36;96.77;100040.16;10313651;28;20097;-76
2023/04/06 17:01:18;;;;;;;17.52;4.20;;;;;;;11.08;97.25;100015.16;10319389;28;20047;-76
2023/04/06 17:06:19;;;;;;;12.40;4.05;;;;;;;11.09;97.33;100043.41;10336540;28;20141;-75
2023/04/06 17:11:20;;;;;;;16.50;4.55;;;;;;;10.59;97.06;99968.56;10341205;28;20133;-75
2023/04/06 17:16:21;;;;;;;15.48;4.97;;;;;;;10.90;97.38;100037.56;10360111;28;20125;-75
2023/04/06 17:21:22;;;;;;;13.27;4.93;;;;;;;11.04;98.16;100067.88;10336589;28;20045;-75
2023/04/06 17:26:22;;;;;;;10.85;4.97;;;;;;;11.03;98.38;100074.16;10335959;28;20065;-75
2023/04/06 17:31:23;;;;;;;22.15;6.05;;;;;;;10.83;98.66;100033.97;10336135;28;20125;-74
2023/04/06 17:36:26;;;;;;;23.75;6.50;;;;;;;10.60;99.13;99998.59;10335809;28;20042;-75
2023/04/06 17:41:27;;;;;;;15.93;5.78;;;;;;;11.05;99.39;100066.03;10335139;28;20483;-76
2023/04/06 17:46:28;;;;;;;18.52;5.60;;;;;;;10.96;99.58;100071.41;10335821;28;20038;-75
2023/04/06 17:51:30;;;;;;;18.63;5.72;;;;;;;10.94;99.42;100075.22;10335355;28;20042;-75
2023/04/06 17:56:30;;;;;;;21.25;5.45;;;;;;;10.88;99.37;100057.34;10335545;28;20054;-75
2023/04/06 18:01:31;;;;;;;18.23;5.40;;;;;;;10.87;99.39;100037.09;10361122;28;20050;-73
2023/04/06 18:06:32;;;;;;;13.52;4.00;;;;;;;10.56;99.22;99984.84;10376258;28;20042;-73
2023/04/06 18:11:33;;;;;;;17.40;5.00;;;;;;;10.93;99.19;100055.81;10375400;28;20100;-74
2023/04/06 18:16:34;;;;;;;17.38;4.30;;;;;;;10.88;99.63;100050.19;10374635;28;20053;-75
2023/04/06 18:21:35;;;;;;;13.75;4.53;;;;;;;10.75;100.00;100039.34;10374189;28;20052;-73
2023/04/06 18:26:35;;;;;;;16.73;5.13;;;;;;;10.18;100.00;99957.34;10373295;28;20534;-73
2023/04/06 18:31:36;;;;;;;27.02;6.05;;;;;;;10.56;100.00;100029.16;10374475;28;20092;-73
2023/04/06 18:36:37;;;;;;;17.73;5.47;;;;;;;10.68;100.00;100043.72;10374389;28;20069;-73
2023/04/06 18:41:38;;;;;;;23.77;7.57;;;;;;;10.52;100.00;100018.88;10373774;28;20049;-74
2023/04/06 18:46:39;;;;;;;18.77;6.97;;;;;;;10.73;100.00;100041.34;10373795;28;20038;-74
2023/04/06 18:51:41;;;;;;;23.85;7.80;;;;;;;10.41;100.00;99991.88;10373786;28;20045;-73
2023/04/06 18:56:42;;;;;;;17.00;5.75;;;;;;;10.54;100.00;100026.69;10373936;28;20107;-73
2023/04/06 19:01:45;;;;;;;26.25;6.97;;;;;;;10.43;100.00;100014.63;10373133;28;20057;-75
2023/04/06 19:06:46;;;;;;;37.65;6.88;;;;;;;10.03;100.00;99938.69;10372764;28;20042;-73
2023/04/06 19:11:47;;;;;;;21.05;7.68;;;;;;;10.10;100.00;99958.19;10372742;28;20132;-73
2023/04/06 19:16:50;;;;;;;30.10;6.85;;;;;;;10.45;100.00;100014.47;10372411;28;20041;-73
2023/04/06 19:21:51;;;;;;;18.85;5.63;;;;;;;10.44;100.00;100018.94;10372453;28;20041;-75
2023/04/06 19:26:52;;;;;;;31.75;17.42;;;;;;;10.38;100.00;100011.69;10372224;28;20124;-74
2023/04/06 19:31:53;;;;;;;27.73;14.20;;;;;;;10.37;100.00;100025.13;10370779;28;20156;-74
2023/04/06 19:36:54;;;;;;;21.42;10.50;;;;;;;10.22;100.00;100015.19;10372493;28;20040;-74
2023/04/06 19:41:55;;;;;;;25.63;8.55;;;;;;;10.12;100.00;100024.41;10371524;28;20076;-74
2023/04/06 19:46:56;;;;;;;26.05;8.25;;;;;;;10.10;100.00;100027.19;10355295;28;20125;-74
2023/04/06 19:51:57;;;;;;;19.83;6.75;;;;;;;9.33;100.00;99912.94;10331049;28;20137;-75
2023/04/06 19:56:58;;;;;;;18.23;6.20;;;;;;;9.95;100.00;100035.06;10332299;28;20086;-74
2023/04/06 20:01:59;;;;;;;17.33;5.57;;;;;;;10.00;100.00;100029.25;10331576;28;20050;-74
2023/04/06 20:06:59;;;;;;;16.63;5.78;;;;;;;9.38;100.00;99945.06;10331308;28;20054;-74
2023/04/06 20:12:00;;;;;;;13.00;5.05;;;;;;;9.44;100.00;99978.84;10330635;28;20046;-74
2023/04/06 20:17:01;;;;;;;23.90;7.00;;;;;;;9.75;100.00;100041.75;10330881;28;20043;-74
2023/04/06 20:22:02;;;;;;;16.90;5.47;;;;;;;9.60;100.00;100049.56;10330342;28;20046;-74
2023/04/06 20:27:03;;;;;;;18.23;5.95;;;;;;;9.54;100.00;100051.09;10331648;28;20046;-74
2023/04/06 20:32:04;;;;;;;13.57;5.05;;;;;;;9.56;100.00;100061.53;10330777;28;20100;-75
2023/04/06 20:37:05;;;;;;;13.10;5.35;;;;;;;9.52;100.00;100052.25;10330978;28;20494;-74
2023/04/06 20:42:07;;;;;;;12.95;4.78;;;;;;;9.40;100.00;100046.47;10332380;28;20096;-74
2023/04/06 20:47:08;;;;;;;15.75;4.78;;;;;;;9.37;100.00;100065.38;10338128;28;20045;-74
2023/04/06 20:52:08;;;;;;;15.75;5.00;;;;;;;9.32;100.00;100057.91;10337385;28;20050;-74
2023/04/06 20:57:09;;;;;;;18.42;5.97;;;;;;;8.64;100.00;99949.63;10337459;28;20056;-74
2023/04/06 21:02:10;;;;;;;15.13;4.80;;;;;;;8.89;100.00;100006.09;10335883;28;20046;-74
2023/04/06 21:07:11;;;;;;;22.58;5.70;;;;;;;9.04;100.00;100030.09;10302235;28;20516;-74
2023/04/06 21:12:12;;;;;;;20.58;5.30;;;;;;;9.03;100.00;100041.66;10296213;28;20070;-74
2023/04/06 21:17:13;;;;;;;14.10;4.70;;;;;;;9.04;100.00;100067.19;10296325;28;20049;-74
2023/04/06 21:22:14;;;;;;;11.32;4.47;;;;;;;8.43;100.00;99976.56;10297213;28;20137;-73
2023/04/06 21:27:15;;;;;;;9.15;4.28;;;;;;;8.63;100.00;100052.06;10296255;28;20039;-73
2023/04/06 21:32:15;;;;;;;17.63;5.28;;;;;;;8.21;100.00;100017.69;10343447;28;20042;-74
2023/04/06 21:37:16;;;;;;;17.27;6.00;;;;;;;7.88;100.00;99967.31;10357918;28;20457;-73
2023/04/06 21:42:17;;;;;;;15.20;5.60;;;;;;;8.30;100.00;100031.78;10371833;28;20038;-73
2023/04/06 21:47:18;;;;;;;12.95;5.10;;;;;;;8.04;100.00;99997.44;10335791;28;20049;-73
2023/04/06 21:52:19;;;;;;;11.35;4.55;;;;;;;8.05;100.00;100033.47;10334336;28;20069;-73
2023/04/06 21:57:19;;;;;;;14.57;4.80;;;;;;;7.75;100.00;99999.50;10334413;28;20080;-73
2023/04/06 22:02:21;;;;;;;12.00;4.93;;;;;;;7.60;100.00;99993.13;10351954;28;20411;-73
2023/04/06 22:07:21;;;;;;;13.10;4.50;;;;;;;7.72;100.00;100026.25;10375404;28;20044;-73
2023/04/06 22:12:23;;;;;;;10.27;4.00;;;;;;;7.54;100.00;100026.31;10375325;28;20048;-72
2023/04/06 22:17:23;;;;;;;11.68;3.53;;;;;;;7.45;100.00;100026.38;10375248;28;20125;-73
2023/04/06 22:22:24;;;;;;;8.02;3.97;;;;;;;7.30;100.00;100019.06;10375210;28;20379;-73
2023/04/06 22:27:26;;;;;;;6.18;3.00;;;;;;;7.22;100.00;100023.44;10374908;28;20092;-72
2023/04/06 22:32:27;;;;;;;8.85;3.08;;;;;;;7.11;100.00;100018.41;10373278;28;20073;-72
2023/04/06 22:37:27;;;;;;;14.23;4.50;;;;;;;7.08;100.00;100011.63;10373633;28;20113;-72
2023/04/06 22:42:28;;;;;;;15.20;4.05;;;;;;;6.93;100.00;99992.84;10373660;28;20038;-72
2023/04/06 22:47:29;;;;;;;9.55;4.25;;;;;;;7.01;100.00;100011.41;10373565;28;20045;-72
2023/04/06 22:52:30;;;;;;;4.88;2.50;;;;;;;6.77;100.00;99996.19;10352919;28;20092;-72
2023/04/06 22:57:31;;;;;;;5.50;2.63;;;;;;;6.57;100.00;99979.66;10333014;28;20066;-72